Time;durP1;ratioP1;P1;durP2;ratioP2;P2;SDS_P1;SDS_P2;PMS_P1;PMS_P2;Temp;Humidity;BMP_temperature;BMP_pressure;BME280_temperature;BME280_humidity;BME280_pressure;Samples;Min_cycle;Max_cycle;Signal;HPM_P1;HPM_P2
2024/01/30 00:00:19;;;;;;;1.33;1.33;;;;;;;2.29;nan;101628.88;5049567;28;20626;-63
2024/01/30 00:02:47;;;;;;;0.80;0.80;;;;;;;2.26;nan;101633.84;5049349;28;20200;-63
2024/01/30 00:05:14;;;;;;;1.20;1.20;;;;;;;2.23;nan;101636.25;5048800;28;20270;-63
2024/01/30 00:07:41;;;;;;;0.80;0.80;;;;;;;2.10;nan;101620.56;5050213;28;23624;-63
2024/01/30 00:10:08;;;;;;;0.60;0.60;;;;;;;2.23;nan;101638.78;5049886;28;20645;-63
2024/01/30 00:12:35;;;;;;;0.63;0.63;;;;;;;2.13;nan;101634.16;5049695;28;20738;-64
2024/01/30 00:15:04;;;;;;;0.90;0.90;;;;;;;2.13;nan;101634.16;5049731;28;20204;-63
2024/01/30 00:17:30;;;;;;;1.20;1.20;;;;;;;2.13;nan;101635.03;5049200;28;20966;-63
2024/01/30 00:19:58;;;;;;;0.80;0.80;;;;;;;2.13;nan;101641.75;5049993;28;20197;-63
2024/01/30 00:22:25;;;;;;;0.90;0.90;;;;;;;2.11;nan;101640.00;5050006;28;20197;-63
2024/01/30 00:24:52;;;;;;;0.93;0.93;;;;;;;2.14;nan;101644.31;5049340;28;20201;-63
2024/01/30 00:27:18;;;;;;;1.47;1.47;;;;;;;2.13;nan;101635.84;5049831;28;20200;-63
2024/01/30 00:29:45;;;;;;;0.87;0.87;;;;;;;2.06;nan;101623.78;5049467;28;20220;-63
2024/01/30 00:32:12;;;;;;;0.80;0.80;;;;;;;2.08;nan;101637.34;5049561;28;20266;-63
2024/01/30 00:34:38;;;;;;;1.00;1.00;;;;;;;2.04;nan;101635.50;5048643;28;20204;-64
2024/01/30 00:37:06;;;;;;;0.87;0.87;;;;;;;2.04;nan;101640.56;5053596;28;20254;-63
2024/01/30 00:39:33;;;;;;;2.00;1.90;;;;;;;2.00;nan;101633.66;5053285;28;20254;-64
2024/01/30 00:42:01;;;;;;;0.90;0.90;;;;;;;1.96;nan;101636.00;5052838;28;20201;-63
2024/01/30 00:44:28;;;;;;;1.13;1.13;;;;;;;1.91;nan;101643.41;5051278;28;20200;-64
2024/01/30 00:46:55;;;;;;;0.80;0.80;;;;;;;1.92;nan;101639.22;5052614;28;20270;-67
2024/01/30 00:49:22;;;;;;;1.77;1.57;;;;;;;1.87;nan;101641.56;5052995;28;20212;-67
2024/01/30 00:51:48;;;;;;;0.80;0.80;;;;;;;1.83;nan;101644.78;5052915;28;20193;-67
2024/01/30 00:54:17;;;;;;;1.00;1.00;;;;;;;1.80;nan;101634.53;5052813;28;20265;-67
2024/01/30 00:56:44;;;;;;;2.20;2.00;;;;;;;1.76;nan;101647.84;5047148;28;20198;-67
2024/01/30 00:59:10;;;;;;;1.03;1.03;;;;;;;1.67;nan;101642.41;5052517;28;20201;-67
2024/01/30 01:01:37;;;;;;;1.37;1.37;;;;;;;1.62;nan;101643.03;5052801;28;20258;-67
2024/01/30 01:04:04;;;;;;;2.03;1.93;;;;;;;1.58;nan;101639.50;5052058;28;20208;-68
2024/01/30 01:06:30;;;;;;;0.70;0.70;;;;;;;1.54;nan;101636.00;5053072;28;20231;-67
2024/01/30 01:08:57;;;;;;;0.90;0.90;;;;;;;1.54;nan;101637.66;5052460;28;20205;-66
2024/01/30 01:11:25;;;;;;;2.50;0.97;;;;;;;1.49;nan;101636.56;5052589;28;20201;-67
2024/01/30 01:13:52;;;;;;;0.87;0.87;;;;;;;1.47;nan;101638.19;5049510;28;20270;-67
2024/01/30 01:16:18;;;;;;;0.90;0.90;;;;;;;1.49;nan;101631.53;5052333;28;20680;-63
2024/01/30 01:18:45;;;;;;;0.83;0.83;;;;;;;1.51;nan;101630.81;5051992;28;20780;-62
2024/01/30 01:21:12;;;;;;;0.90;0.90;;;;;;;1.50;nan;101628.19;5051814;28;20246;-62
2024/01/30 01:23:38;;;;;;;0.90;0.90;;;;;;;1.53;nan;101633.38;5052471;28;20240;-62
2024/01/30 01:26:05;;;;;;;0.80;0.80;;;;;;;1.53;nan;101626.66;5052284;28;20200;-63
2024/01/30 01:28:33;;;;;;;1.37;1.37;;;;;;;1.53;nan;101623.28;5049446;28;20208;-62
2024/01/30 01:31:04;;;;;;;0.87;0.87;;;;;;;1.46;nan;101627.22;5051945;28;20271;-63
2024/01/30 01:33:31;;;;;;;1.90;1.13;;;;;;;1.44;nan;101620.38;5051286;28;20660;-62
2024/01/30 01:35:58;;;;;;;0.90;0.90;;;;;;;1.42;nan;101614.41;5052342;28;20201;-62
2024/01/30 01:38:25;;;;;;;0.70;0.70;;;;;;;1.34;nan;101615.72;5052202;28;20668;-62
2024/01/30 01:40:52;;;;;;;0.93;0.83;;;;;;;1.34;nan;101610.66;5051917;28;20208;-62
2024/01/30 01:43:19;;;;;;;0.70;0.70;;;;;;;1.32;nan;101612.28;5050572;28;20197;-61
2024/01/30 01:45:47;;;;;;;0.93;0.93;;;;;;;1.34;nan;101605.63;5052464;28;20243;-62
2024/01/30 01:48:14;;;;;;;1.00;1.00;;;;;;;1.31;nan;101610.53;5045847;28;20747;-62
2024/01/30 01:50:42;;;;;;;0.70;0.70;;;;;;;1.30;nan;101614.72;5050048;28;20274;-61
2024/01/30 01:53:09;;;;;;;0.97;0.97;;;;;;;1.21;nan;101613.47;5050024;28;20197;-63
2024/01/30 01:55:36;;;;;;;1.00;1.00;;;;;;;1.14;nan;101624.97;5049884;28;20212;-62
2024/01/30 01:58:03;;;;;;;0.70;0.70;;;;;;;1.10;nan;101620.59;5047802;28;20205;-62
2024/01/30 02:00:31;;;;;;;1.70;1.70;;;;;;;1.10;nan;101629.84;5049971;28;20664;-62
2024/01/30 02:03:00;;;;;;;0.80;0.80;;;;;;;1.08;nan;101622.19;5049441;28;20197;-62
2024/01/30 02:05:27;;;;;;;0.73;0.73;;;;;;;1.04;nan;101621.19;5051599;28;20205;-62
2024/01/30 02:07:55;;;;;;;0.90;0.90;;;;;;;1.04;nan;101621.19;5051855;28;20212;-62
2024/01/30 02:10:21;;;;;;;1.03;1.03;;;;;;;1.01;nan;101621.06;5051302;28;20216;-62
2024/01/30 02:12:49;;;;;;;1.57;1.57;;;;;;;0.89;nan;101604.50;5051765;28;20200;-62
2024/01/30 02:15:15;;;;;;;0.70;0.70;;;;;;;0.90;nan;101616.34;5051535;28;20712;-61
2024/01/30 02:17:42;;;;;;;1.13;1.13;;;;;;;0.85;nan;101622.84;5050887;28;20261;-61
2024/01/30 02:20:12;;;;;;;0.90;0.90;;;;;;;-0.34;nan;101429.94;5046458;28;20209;-62
2024/01/30 02:22:41;;;;;;;0.83;0.83;;;;;;;0.78;nan;101621.72;5051433;28;20209;-62
2024/01/30 02:25:09;;;;;;;1.00;1.00;;;;;;;0.74;nan;101613.94;5049521;28;20635;-62
2024/01/30 02:27:36;;;;;;;0.60;0.60;;;;;;;0.82;nan;101633.69;5051307;28;20710;-62
2024/01/30 02:30:02;;;;;;;0.80;0.80;;;;;;;0.78;nan;101634.31;5051188;28;20266;-62
2024/01/30 02:32:29;;;;;;;0.70;0.70;;;;;;;0.75;nan;101630.78;5051445;28;20277;-63
2024/01/30 02:34:56;;;;;;;0.80;0.80;;;;;;;0.74;nan;101635.00;5047349;28;20201;-62
2024/01/30 02:37:22;;;;;;;1.00;1.00;;;;;;;0.71;nan;101639.88;5051245;28;20200;-62
2024/01/30 02:39:50;;;;;;;1.10;1.10;;;;;;;0.69;nan;101631.41;5050628;28;20258;-69
2024/01/30 02:42:17;;;;;;;1.00;1.00;;;;;;;0.70;nan;101633.13;5051199;28;20255;-69
2024/01/30 02:44:44;;;;;;;0.90;0.90;;;;;;;0.68;nan;101629.66;5049148;28;20192;-68
2024/01/30 02:47:10;;;;;;;0.87;0.87;;;;;;;0.65;nan;101629.53;5051282;28;20232;-69
2024/01/30 02:49:37;;;;;;;1.33;1.27;;;;;;;0.64;nan;101632.88;5049386;28;20201;-69
2024/01/30 02:52:04;;;;;;;1.00;1.00;;;;;;;0.62;nan;101634.44;5050378;28;20258;-62
2024/01/30 02:54:31;;;;;;;0.90;0.90;;;;;;;0.59;nan;101631.78;5050197;28;20262;-62
2024/01/30 02:56:59;;;;;;;0.93;0.87;;;;;;;0.57;nan;101630.84;5050437;28;20200;-62
2024/01/30 02:59:26;;;;;;;0.90;0.90;;;;;;;0.58;nan;101642.69;5050322;28;20258;-62
2024/01/30 03:01:52;;;;;;;0.90;0.90;;;;;;;0.60;nan;101650.31;5049927;28;20750;-62
2024/01/30 03:04:19;;;;;;;0.60;0.60;;;;;;;0.56;nan;101644.25;5049793;28;20197;-62
2024/01/30 03:06:47;;;;;;;1.80;1.07;;;;;;;0.50;nan;101644.84;5050310;28;20250;-61
2024/01/30 03:09:14;;;;;;;1.03;1.03;;;;;;;0.51;nan;101640.66;5046140;28;20703;-63
2024/01/30 03:11:41;;;;;;;1.13;1.13;;;;;;;0.36;nan;101624.81;5050859;28;20248;-62
2024/01/30 03:14:10;;;;;;;0.80;0.80;;;;;;;0.44;nan;101626.03;5050069;28;20255;-62
2024/01/30 03:16:37;;;;;;;0.77;0.77;;;;;;;0.50;nan;101628.84;5050426;28;20197;-62
2024/01/30 03:19:05;;;;;;;0.80;0.80;;;;;;;0.53;nan;101634.03;5049703;28;20258;-62
2024/01/30 03:21:31;;;;;;;0.90;0.90;;;;;;;0.52;nan;101629.75;5050784;28;20242;-62
2024/01/30 03:23:59;;;;;;;1.07;1.07;;;;;;;0.51;nan;101635.63;5049139;28;20205;-62
2024/01/30 03:26:26;;;;;;;0.90;0.90;;;;;;;0.51;nan;101628.06;5049062;28;20718;-62
2024/01/30 03:28:52;;;;;;;0.80;0.80;;;;;;;0.53;nan;101628.97;5048772;28;20254;-62
2024/01/30 03:31:20;;;;;;;1.00;1.00;;;;;;;0.46;nan;101621.91;5050079;28;20270;-62
2024/01/30 03:33:47;;;;;;;0.90;0.90;;;;;;;0.50;nan;101628.84;5050166;28;20193;-62
2024/01/30 03:36:14;;;;;;;1.17;1.13;;;;;;;0.50;nan;101633.88;5049322;28;20259;-62
2024/01/30 03:38:40;;;;;;;0.80;0.80;;;;;;;0.47;nan;101634.63;5050034;28;20576;-62
2024/01/30 03:41:09;;;;;;;0.90;0.90;;;;;;;0.36;nan;101629.84;5050307;28;20301;-62
2024/01/30 03:43:36;;;;;;;4.83;1.17;;;;;;;0.41;nan;101623.38;5049464;28;20728;-62
2024/01/30 03:46:03;;;;;;;1.17;1.17;;;;;;;0.40;nan;101621.63;5050192;28;20263;-62
2024/01/30 03:48:31;;;;;;;0.90;0.90;;;;;;;0.41;nan;101618.31;5049550;28;20196;-62
2024/01/30 03:50:58;;;;;;;0.70;0.70;;;;;;;0.42;nan;101620.06;5041835;28;20221;-61
2024/01/30 03:53:24;;;;;;;0.80;0.80;;;;;;;0.42;nan;101625.13;5049094;28;20200;-62
2024/01/30 03:55:51;;;;;;;0.83;0.83;;;;;;;0.40;nan;101617.47;5049260;28;20258;-62
2024/01/30 03:58:18;;;;;;;1.17;1.17;;;;;;;0.40;nan;101616.59;5047802;28;20200;-61
2024/01/30 04:00:44;;;;;;;0.70;0.70;;;;;;;0.41;nan;101636.00;5048752;28;20193;-62
2024/01/30 04:03:11;;;;;;;1.03;1.03;;;;;;;0.20;nan;101634.97;5042803;28;20205;-61
2024/01/30 04:05:39;;;;;;;0.97;0.97;;;;;;;0.03;nan;101635.84;5044919;28;20196;-62
2024/01/30 04:08:06;;;;;;;0.60;0.60;;;;;;;-0.10;nan;101647.84;5048005;28;20201;-61
2024/01/30 04:10:33;;;;;;;0.70;0.70;;;;;;;-0.25;nan;101647.13;5050252;28;20216;-61
2024/01/30 04:13:00;;;;;;;1.00;1.00;;;;;;;-0.31;nan;101649.34;5053700;28;20281;-62
2024/01/30 04:15:27;;;;;;;1.43;1.43;;;;;;;-0.32;nan;101642.56;5053338;28;20200;-62
2024/01/30 04:17:54;;;;;;;0.80;0.80;;;;;;;-0.32;nan;101637.50;5050955;28;20231;-62
2024/01/30 04:20:21;;;;;;;0.70;0.70;;;;;;;-0.34;nan;101638.25;5049599;28;20266;-62
2024/01/30 04:22:49;;;;;;;0.90;0.90;;;;;;;-0.39;nan;101638.03;5049853;28;20621;-62
2024/01/30 04:25:16;;;;;;;0.83;0.83;;;;;;;-0.43;nan;101626.06;5053476;28;20223;-62
2024/01/30 04:27:42;;;;;;;0.70;0.70;;;;;;;-0.50;nan;101634.09;5052910;28;20197;-61
2024/01/30 04:30:10;;;;;;;0.80;0.80;;;;;;;-0.57;nan;101635.44;5053960;28;20260;-61
2024/01/30 04:32:37;;;;;;;1.00;1.00;;;;;;;-0.76;nan;101619.34;5052874;28;20207;-67
2024/01/30 04:35:05;;;;;;;0.80;0.80;;;;;;;-0.64;nan;101642.59;5054771;28;20251;-67
2024/01/30 04:37:32;;;;;;;0.80;0.80;;;;;;;-0.64;nan;101645.13;5053448;28;20199;-67
2024/01/30 04:40:00;;;;;;;0.90;0.90;;;;;;;-0.57;nan;101647.16;5044076;28;20201;-67
2024/01/30 04:42:26;;;;;;;0.80;0.80;;;;;;;-0.50;nan;101653.38;5053146;28;20247;-67
2024/01/30 04:44:53;;;;;;;0.80;0.80;;;;;;;-0.45;nan;101649.47;5052908;28;20261;-67
2024/01/30 04:47:20;;;;;;;0.80;0.80;;;;;;;-0.42;nan;101647.94;5047237;28;20206;-67
2024/01/30 04:49:46;;;;;;;0.70;0.70;;;;;;;-0.37;nan;101656.59;5051036;28;20197;-67
2024/01/30 04:52:13;;;;;;;0.70;0.70;;;;;;;-0.32;nan;101655.16;5048092;28;20212;-67
2024/01/30 04:54:40;;;;;;;1.00;1.00;;;;;;;-0.36;nan;101648.25;5052840;28;20672;-67
2024/01/30 04:57:11;;;;;;;1.10;1.10;;;;;;;-0.20;nan;101665.88;5050862;28;20569;-67
2024/01/30 04:59:38;;;;;;;0.70;0.70;;;;;;;-0.11;nan;101667.97;5045971;28;20205;-67
2024/01/30 05:02:05;;;;;;;0.90;0.90;;;;;;;-0.06;nan;101669.91;5051779;28;20251;-67
2024/01/30 05:04:31;;;;;;;0.80;0.80;;;;;;;-0.06;nan;101669.91;5040473;28;20632;-68
2024/01/30 05:06:58;;;;;;;0.70;0.70;;;;;;;-0.03;nan;101667.53;5043377;28;20204;-67
2024/01/30 05:09:25;;;;;;;0.80;0.80;;;;;;;0.03;nan;101673.69;5050513;28;20250;-67
2024/01/30 05:11:51;;;;;;;0.70;0.70;;;;;;;0.05;nan;101667.03;5050064;28;20213;-67
2024/01/30 05:14:20;;;;;;;0.70;0.70;;;;;;;0.02;nan;101674.47;5050764;28;20201;-67
2024/01/30 05:16:47;;;;;;;1.00;1.00;;;;;;;-0.09;nan;101654.63;5049647;28;20197;-67
2024/01/30 05:19:14;;;;;;;0.90;0.90;;;;;;;0.05;nan;101678.00;5050317;28;20204;-67
2024/01/30 05:21:41;;;;;;;0.80;0.80;;;;;;;0.11;nan;101677.41;5051037;28;20608;-67
2024/01/30 05:24:09;;;;;;;0.83;0.83;;;;;;;0.06;nan;101669.66;5051634;28;20193;-67
2024/01/30 05:26:36;;;;;;;1.40;1.40;;;;;;;0.14;nan;101677.56;5052282;28;20248;-67
2024/01/30 05:29:03;;;;;;;1.40;1.37;;;;;;;0.17;nan;101671.00;5051566;28;20204;-67
2024/01/30 05:31:31;;;;;;;0.83;0.83;;;;;;;0.20;nan;101667.75;5046668;28;20303;-68
2024/01/30 05:33:58;;;;;;;0.87;0.87;;;;;;;0.20;nan;101668.63;5044093;28;20269;-69
2024/01/30 05:36:25;;;;;;;1.20;1.20;;;;;;;0.19;nan;101661.00;5049254;28;20205;-69
2024/01/30 05:38:52;;;;;;;1.07;1.07;;;;;;;0.05;nan;101641.81;5047379;28;20558;-69
2024/01/30 05:41:18;;;;;;;1.00;1.00;;;;;;;0.14;nan;101667.47;5049286;28;20246;-69
2024/01/30 05:43:45;;;;;;;0.77;0.77;;;;;;;0.16;nan;101668.44;5051250;28;20200;-69
2024/01/30 05:46:12;;;;;;;1.27;1.27;;;;;;;0.10;nan;101663.09;5050921;28;20730;-69
2024/01/30 05:48:40;;;;;;;0.90;0.90;;;;;;;0.16;nan;101678.53;5052101;28;20664;-69
2024/01/30 05:51:08;;;;;;;0.97;0.97;;;;;;;0.17;nan;101682.75;5051495;28;20212;-69
2024/01/30 05:53:35;;;;;;;0.70;0.70;;;;;;;0.18;nan;101675.28;5051549;28;20246;-69
2024/01/30 05:56:02;;;;;;;1.43;1.43;;;;;;;0.18;nan;101674.41;5050760;28;20266;-69
2024/01/30 05:58:30;;;;;;;0.70;0.70;;;;;;;0.20;nan;101672.81;5050134;28;20212;-69
2024/01/30 06:00:57;;;;;;;0.70;0.70;;;;;;;0.15;nan;101675.13;5049861;28;20258;-69
2024/01/30 06:03:24;;;;;;;1.23;1.23;;;;;;;0.15;nan;101669.22;5049994;28;20205;-68
2024/01/30 06:05:52;;;;;;;1.30;1.30;;;;;;;0.16;nan;101666.78;5051939;28;20672;-68
2024/01/30 06:08:19;;;;;;;0.70;0.70;;;;;;;0.14;nan;101657.38;5049228;28;20684;-69
2024/01/30 06:10:47;;;;;;;1.10;1.10;;;;;;;0.31;nan;101671.66;5048527;28;20247;-68
2024/01/30 06:13:14;;;;;;;1.80;1.80;;;;;;;0.41;nan;101674.72;5051115;28;20228;-68
2024/01/30 06:15:41;;;;;;;0.83;0.83;;;;;;;0.50;nan;101677.66;5051033;28;20196;-68
2024/01/30 06:18:07;;;;;;;0.70;0.70;;;;;;;0.60;nan;101685.66;5048875;28;20286;-68
2024/01/30 06:20:34;;;;;;;1.07;1.07;;;;;;;0.52;nan;101665.97;5050926;28;20216;-68
2024/01/30 06:23:02;;;;;;;0.80;0.80;;;;;;;0.69;nan;101696.16;5050213;28;20224;-69
2024/01/30 06:25:29;;;;;;;1.30;1.30;;;;;;;0.63;nan;101696.75;5047182;28;20196;-69
2024/01/30 06:27:56;;;;;;;1.30;1.30;;;;;;;0.60;nan;101686.50;5048037;28;20227;-69
2024/01/30 06:30:22;;;;;;;0.70;0.70;;;;;;;0.63;nan;101691.69;5045532;28;20746;-72
2024/01/30 06:32:49;;;;;;;0.60;0.60;;;;;;;0.63;nan;101691.69;5047885;28;20216;-70
2024/01/30 06:35:17;;;;;;;0.90;0.90;;;;;;;0.65;nan;101684.22;5048456;28;20205;-72
2024/01/30 06:37:44;;;;;;;1.40;1.40;;;;;;;0.64;nan;101697.63;5045732;28;20205;-71
2024/01/30 06:40:13;;;;;;;1.03;1.03;;;;;;;0.65;nan;101690.09;5046474;28;20205;-71
2024/01/30 06:42:39;;;;;;;0.80;0.80;;;;;;;0.61;nan;101683.19;5049866;28;20207;-71
2024/01/30 06:45:07;;;;;;;0.80;0.80;;;;;;;0.66;nan;101684.28;5049547;28;20204;-71
2024/01/30 06:47:34;;;;;;;1.00;1.00;;;;;;;0.61;nan;101688.25;5048062;28;20573;-72
2024/01/30 06:50:01;;;;;;;0.90;0.90;;;;;;;0.65;nan;101694.31;5049843;28;20204;-70
2024/01/30 06:52:28;;;;;;;0.73;0.73;;;;;;;0.67;nan;101691.06;5049962;28;20216;-72
2024/01/30 06:54:55;;;;;;;0.90;0.90;;;;;;;0.63;nan;101689.19;5047774;28;20667;-74
2024/01/30 06:57:23;;;;;;;0.80;0.80;;;;;;;0.60;nan;101689.03;5048326;28;20254;-73
2024/01/30 06:59:50;;;;;;;0.80;0.80;;;;;;;0.60;nan;101691.56;5049230;28;20636;-71
2024/01/30 07:02:17;;;;;;;0.80;0.80;;;;;;;0.67;nan;101697.75;5049324;28;20251;-72
2024/01/30 07:04:43;;;;;;;11.30;1.70;;;;;;;0.69;nan;101697.03;5048568;28;20703;-71
2024/01/30 07:07:12;;;;;;;1.10;1.10;;;;;;;0.77;nan;101699.91;5046685;28;20209;-70
2024/01/30 07:09:39;;;;;;;0.70;0.70;;;;;;;0.82;nan;101688.34;5048435;28;20205;-72
2024/01/30 07:12:07;;;;;;;0.60;0.60;;;;;;;0.86;nan;101691.09;5049000;28;20235;-72
2024/01/30 07:14:35;;;;;;;0.80;0.80;;;;;;;0.92;nan;101701.47;5047064;28;20247;-72
2024/01/30 07:17:03;;;;;;;2.33;2.33;;;;;;;0.94;nan;101696.47;5047838;28;20255;-73
2024/01/30 07:19:30;;;;;;;0.93;0.93;;;;;;;0.95;nan;101696.56;5049224;28;20265;-73
2024/01/30 07:21:56;;;;;;;1.10;1.10;;;;;;;0.99;nan;101698.44;5048901;28;20204;-74
2024/01/30 07:24:23;;;;;;;0.90;0.90;;;;;;;0.99;nan;101695.91;5049249;28;20205;-73
2024/01/30 07:26:50;;;;;;;1.27;1.27;;;;;;;0.99;nan;101692.50;5048981;28;20266;-73
2024/01/30 07:29:16;;;;;;;0.70;0.70;;;;;;;0.95;nan;101688.09;5049325;28;20635;-72
2024/01/30 07:31:44;;;;;;;0.80;0.80;;;;;;;0.86;nan;101678.47;5048704;28;20220;-72
2024/01/30 07:34:12;;;;;;;0.70;0.70;;;;;;;1.02;nan;101698.56;5048943;28;20262;-72
2024/01/30 07:36:39;;;;;;;1.10;1.10;;;;;;;1.07;nan;101696.22;5048938;28;20238;-72
2024/01/30 07:39:06;;;;;;;1.37;1.37;;;;;;;1.05;nan;101688.59;5049211;28;20204;-71
2024/01/30 07:41:33;;;;;;;1.00;1.00;;;;;;;1.17;nan;101707.59;5049180;28;20211;-71
2024/01/30 07:43:59;;;;;;;1.10;1.10;;;;;;;1.24;nan;101695.31;5045769;28;20209;-70
2024/01/30 07:46:26;;;;;;;1.27;1.27;;;;;;;1.22;nan;101701.97;5050568;28;20336;-70
2024/01/30 07:48:55;;;;;;;1.47;1.47;;;;;;;1.17;nan;101703.41;5050551;28;20208;-72
2024/01/30 07:51:22;;;;;;;0.90;0.90;;;;;;;1.13;nan;101691.47;5050735;28;20204;-71
2024/01/30 07:53:49;;;;;;;1.00;1.00;;;;;;;1.20;nan;101697.63;5050599;28;20204;-76
2024/01/30 07:56:15;;;;;;;0.67;0.67;;;;;;;1.21;nan;101704.44;5051740;28;20208;-71
2024/01/30 07:58:42;;;;;;;0.90;0.90;;;;;;;1.21;nan;101694.31;5052207;28;20669;-70
2024/01/30 08:01:09;;;;;;;1.13;1.13;;;;;;;1.19;nan;101700.97;5050935;28;20212;-70
2024/01/30 08:03:36;;;;;;;0.80;0.80;;;;;;;1.20;nan;101703.56;5051628;28;20212;-71
2024/01/30 08:06:05;;;;;;;0.80;0.80;;;;;;;1.24;nan;101700.38;5052012;28;20208;-71
2024/01/30 08:08:31;;;;;;;0.70;0.70;;;;;;;1.27;nan;101699.63;5051717;28;20209;-71
2024/01/30 08:10:58;;;;;;;0.90;0.90;;;;;;;1.28;nan;101692.13;5051836;28;20209;-70
2024/01/30 08:13:25;;;;;;;0.70;0.70;;;;;;;1.31;nan;101694.81;5052216;28;20286;-71
2024/01/30 08:15:52;;;;;;;1.07;1.07;;;;;;;1.39;nan;101695.13;5044347;28;20201;-71
2024/01/30 08:18:18;;;;;;;0.90;0.90;;;;;;;1.45;nan;101700.47;5052217;28;20286;-71
2024/01/30 08:20:45;;;;;;;0.67;0.67;;;;;;;1.51;nan;101698.19;5051053;28;20277;-71
2024/01/30 08:23:13;;;;;;;0.70;0.70;;;;;;;1.55;nan;101697.53;5051496;28;20197;-71
2024/01/30 08:25:40;;;;;;;0.70;0.70;;;;;;;1.64;nan;101695.38;5052639;28;20201;-72
2024/01/30 08:28:07;;;;;;;1.17;1.17;;;;;;;1.65;nan;101699.63;5051279;28;20213;-72
2024/01/30 08:30:33;;;;;;;1.07;1.07;;;;;;;1.62;nan;101678.44;5051300;28;20208;-71
2024/01/30 08:33:00;;;;;;;1.10;1.10;;;;;;;1.73;nan;101703.34;5048645;28;20676;-72
2024/01/30 08:35:27;;;;;;;0.60;0.60;;;;;;;1.76;nan;101698.41;5050462;28;20205;-71
2024/01/30 08:37:54;;;;;;;0.80;0.80;;;;;;;1.83;nan;101702.06;5050534;28;20210;-71
2024/01/30 08:40:23;;;;;;;0.80;0.80;;;;;;;1.89;nan;101699.78;5050481;28;20225;-71
2024/01/30 08:42:50;;;;;;;0.80;0.80;;;;;;;2.00;nan;101701.13;5048199;28;20294;-71
2024/01/30 08:45:17;;;;;;;0.67;0.67;;;;;;;2.10;nan;101690.56;5050505;28;20227;-71
2024/01/30 08:47:44;;;;;;;1.00;1.00;;;;;;;2.25;nan;101687.78;5048252;28;20227;-72
2024/01/30 08:50:11;;;;;;;1.30;1.30;;;;;;;2.30;nan;101694.72;5050502;28;20265;-72
2024/01/30 08:52:37;;;;;;;0.80;0.80;;;;;;;2.37;nan;101695.84;5048433;28;20224;-72
2024/01/30 08:55:05;;;;;;;0.60;0.60;;;;;;;2.39;nan;101696.78;5049234;28;20259;-72
2024/01/30 08:57:33;;;;;;;0.70;0.70;;;;;;;2.41;nan;101697.69;5047932;28;20208;-72
2024/01/30 09:00:03;;;;;;;1.00;1.00;;;;;;;2.45;nan;101689.44;5047951;28;20212;-72
2024/01/30 09:02:30;;;;;;;0.90;0.90;;;;;;;2.55;nan;101694.06;5049894;28;20209;-72
2024/01/30 09:04:57;;;;;;;0.80;0.80;;;;;;;2.62;nan;101690.91;5047800;28;20259;-72
2024/01/30 09:07:24;;;;;;;1.03;1.03;;;;;;;2.66;nan;101675.03;5049435;28;20201;-72
2024/01/30 09:09:51;;;;;;;0.70;0.70;;;;;;;2.82;nan;101682.41;5047913;28;20723;-71
2024/01/30 09:12:17;;;;;;;0.93;0.93;;;;;;;2.90;nan;101691.19;5049797;28;20606;-73
2024/01/30 09:14:45;;;;;;;1.33;1.33;;;;;;;2.94;nan;101693.00;5049500;28;20204;-74
2024/01/30 09:17:13;;;;;;;0.70;0.70;;;;;;;2.99;nan;101690.66;5051144;28;20236;-72
2024/01/30 09:19:39;;;;;;;0.70;0.70;;;;;;;3.01;nan;101687.34;5051086;28;20291;-70
2024/01/30 09:22:06;;;;;;;1.43;1.43;;;;;;;3.04;nan;101674.78;5050077;28;20205;-70
2024/01/30 09:24:33;;;;;;;0.70;0.70;;;;;;;3.18;nan;101676.16;5048515;28;20205;-69
2024/01/30 09:27:00;;;;;;;0.90;0.90;;;;;;;3.24;nan;101677.19;5050996;28;20296;-69
2024/01/30 09:29:26;;;;;;;1.13;1.13;;;;;;;3.33;nan;101680.06;5049673;28;20213;-72
2024/01/30 09:31:55;;;;;;;0.67;0.67;;;;;;;3.34;nan;101664.03;5051320;28;20212;-71
2024/01/30 09:34:21;;;;;;;0.73;0.73;;;;;;;3.40;nan;101659.16;5049018;28;20251;-72
2024/01/30 09:36:48;;;;;;;0.70;0.70;;;;;;;3.49;nan;101664.56;5051415;28;20610;-72
2024/01/30 09:39:16;;;;;;;0.83;0.83;;;;;;;3.58;nan;101667.44;5051219;28;20200;-71
2024/01/30 09:41:52;;;;;;;0.70;0.70;;;;;;;3.59;nan;101656.44;5051308;28;20219;-71
2024/01/30 09:44:21;;;;;;;0.70;0.70;;;;;;;3.70;nan;101670.38;5047054;28;20238;-72
2024/01/30 09:46:48;;;;;;;0.80;0.80;;;;;;;3.76;nan;101650.28;5047155;28;20641;-71
2024/01/30 09:49:18;;;;;;;0.60;0.60;;;;;;;3.89;nan;101657.47;5051707;28;20881;-72
2024/01/30 09:51:45;;;;;;;0.83;0.83;;;;;;;3.93;nan;101649.16;5052069;28;20673;-70
2024/01/30 09:54:15;;;;;;;1.00;1.00;;;;;;;3.98;nan;101655.22;5050272;28;21384;-71
2024/01/30 09:56:41;;;;;;;1.70;1.67;;;;;;;4.00;nan;101646.03;5050436;28;20204;-71
2024/01/30 09:59:08;;;;;;;1.20;1.20;;;;;;;4.06;nan;101641.13;5051848;28;20254;-71
2024/01/30 10:01:37;;;;;;;1.63;1.63;;;;;;;4.15;nan;101643.09;5049257;28;20197;-71
2024/01/30 10:04:05;;;;;;;1.00;1.00;;;;;;;4.17;nan;101628.75;5051844;28;20201;-72
2024/01/30 10:06:33;;;;;;;1.10;1.10;;;;;;;4.27;nan;101632.44;5050698;28;20209;-71
2024/01/30 10:08:59;;;;;;;0.60;0.60;;;;;;;4.33;nan;101635.19;5046030;28;20266;-71
2024/01/30 10:11:26;;;;;;;0.97;0.97;;;;;;;4.43;nan;101629.56;5051545;28;20205;-71
2024/01/30 10:13:53;;;;;;;0.93;0.87;;;;;;;4.52;nan;101630.72;5051097;28;20212;-71
2024/01/30 10:16:20;;;;;;;0.73;0.73;;;;;;;4.54;nan;101635.81;5050931;28;20255;-71
2024/01/30 10:18:47;;;;;;;4.53;0.80;;;;;;;4.63;nan;101631.00;5051158;28;20216;-71
2024/01/30 10:21:14;;;;;;;4.60;1.40;;;;;;;4.58;nan;101627.50;5047169;28;20287;-71
2024/01/30 10:23:42;;;;;;;0.87;0.87;;;;;;;4.67;nan;101627.75;5047379;28;20634;-72
2024/01/30 10:26:09;;;;;;;1.43;1.43;;;;;;;4.70;nan;101613.47;5048146;28;20197;-72
2024/01/30 10:28:35;;;;;;;0.93;0.93;;;;;;;4.83;nan;101635.00;5049831;28;20267;-73
2024/01/30 10:31:03;;;;;;;0.90;0.90;;;;;;;4.95;nan;101631.94;5047586;28;20244;-71
2024/01/30 10:33:30;;;;;;;0.77;0.77;;;;;;;4.98;nan;101630.34;5047719;28;20278;-64
2024/01/30 10:36:01;;;;;;;1.33;0.73;;;;;;;5.00;nan;101636.34;5048454;28;20246;-64
2024/01/30 10:38:30;;;;;;;0.80;0.80;;;;;;;4.99;nan;101627.00;5050092;28;20216;-65
2024/01/30 10:40:59;;;;;;;0.73;0.73;;;;;;;5.05;nan;101639.88;5050344;28;20258;-65
2024/01/30 10:43:33;;;;;;;0.60;0.60;;;;;;;5.00;nan;101638.03;5050378;28;20282;-64
2024/01/30 10:46:06;;;;;;;0.87;0.87;;;;;;;4.98;nan;101627.81;5042366;28;20196;-65
2024/01/30 10:48:39;;;;;;;0.67;0.67;;;;;;;5.16;nan;101632.53;5048801;28;20205;-65
2024/01/30 10:51:07;;;;;;;1.17;1.17;;;;;;;5.23;nan;101627.66;5047468;28;20251;-65
2024/01/30 10:53:35;;;;;;;0.70;0.70;;;;;;;5.28;nan;101631.19;5046778;28;20217;-65
2024/01/30 10:56:05;;;;;;;0.90;0.90;;;;;;;5.34;nan;101632.16;5045665;28;20239;-65
2024/01/30 10:58:32;;;;;;;0.60;0.60;;;;;;;5.35;nan;101629.69;5049141;28;20200;-64
2024/01/30 11:01:00;;;;;;;0.90;0.90;;;;;;;5.37;nan;101628.03;5041640;28;20212;-64
2024/01/30 11:03:27;;;;;;;0.60;0.60;;;;;;;5.34;nan;101609.28;5047453;28;20220;-65
2024/01/30 11:05:53;;;;;;;1.27;1.27;;;;;;;5.49;nan;101614.78;5046564;28;20267;-65
2024/01/30 11:08:28;;;;;;;2.05;1.55;;;;;;;5.54;nan;101621.69;5046089;28;20500;-69
2024/01/30 11:10:57;;;;;;;0.90;0.90;;;;;;;5.50;nan;101617.34;5046699;28;20216;-69
2024/01/30 11:13:30;;;;;;;0.87;0.87;;;;;;;5.50;nan;101613.94;5041368;28;20209;-69
2024/01/30 11:16:01;;;;;;;1.60;1.00;;;;;;;5.52;nan;101614.84;5047598;28;20204;-69
2024/01/30 11:18:31;;;;;;;1.10;1.10;;;;;;;5.59;nan;101609.09;5044511;28;20228;-69
2024/01/30 11:20:58;;;;;;;1.87;1.73;;;;;;;5.53;nan;101607.25;5047123;28;20209;-68
2024/01/30 11:23:26;;;;;;;1.80;1.70;;;;;;;5.57;nan;101603.09;5047633;28;20200;-69
2024/01/30 11:25:53;;;;;;;0.97;0.97;;;;;;;5.48;nan;101587.59;5048017;28;20209;-69
2024/01/30 11:28:23;;;;;;;0.87;0.87;;;;;;;5.48;nan;101603.75;5048400;28;20209;-69
2024/01/30 11:30:51;;;;;;;3.27;1.43;;;;;;;5.48;nan;101606.28;5049628;28;20258;-69
2024/01/30 11:33:30;;;;;;;1.33;1.23;;;;;;;5.57;nan;101603.09;5047854;28;20220;-69
2024/01/30 11:35:58;;;;;;;1.63;1.63;;;;;;;5.63;nan;101598.16;5050099;28;20660;-69
2024/01/30 11:38:27;;;;;;;1.07;1.07;;;;;;;5.67;nan;101599.97;5047330;28;20209;-69
2024/01/30 11:40:55;;;;;;;0.97;0.97;;;;;;;5.66;nan;101598.22;5048625;28;20639;-69
2024/01/30 11:43:21;;;;;;;4.10;1.20;;;;;;;5.59;nan;101593.84;5047323;28;20615;-69
2024/01/30 11:45:49;;;;;;;3.23;0.60;;;;;;;5.54;nan;101592.84;5040864;28;20201;-73
2024/01/30 11:48:17;;;;;;;3.77;2.90;;;;;;;5.59;nan;101581.94;5045317;28;20497;-64